South Amboy, New Jersey
Current Conditions -  °F | °C
As of 11:35 PM on Friday 19 Dec 2014 (Local Time) from KLDJ Reporting Station
Overcast Overcast  
Wind Chill: 30°   Ceiling: 2700
Heat Index: 36°   Visibility: 10mi
Dew Point: 25°   Wind: 7mph
Humidity: 65%   Direction: 340°NNW
Pressure: 30.23"   Gusts: NA
Location:  40.48°N, 74.28°W
Report Text: KLDJ 200435Z AUTO 34006KT 10SM OVC027 02/M04 A3023 RMK AO2 T00201039
Loading
Personal Weather Stations






























Interactive Weather Map New forecast layout! Learn more

10-Day Weather Forecast

Advertisements
Track Severe Weather on mobile